sensor_id;sensor_type;location;lat;lon;timestamp;temperature;humidity
1301;DHT22;59099;48.806;9.160;2022-10-18T00:01:16;14.60;99.90
1301;DHT22;59099;48.806;9.160;2022-10-18T00:03:42;14.70;99.90
1301;DHT22;59099;48.806;9.160;2022-10-18T00:06:08;14.70;99.90
1301;DHT22;59099;48.806;9.160;2022-10-18T00:08:35;14.60;99.90
1301;DHT22;59099;48.806;9.160;2022-10-18T00:11:01;14.50;99.90
1301;DHT22;59099;48.806;9.160;2022-10-18T00:13:30;14.40;99.90
1301;DHT22;59099;48.806;9.160;2022-10-18T00:15:59;14.50;99.90
1301;DHT22;59099;48.806;9.160;2022-10-18T00:18:25;14.50;99.90
1301;DHT22;59099;48.806;9.160;2022-10-18T00:21:04;14.50;99.90
1301;DHT22;59099;48.806;9.160;2022-10-18T00:23:35;14.40;99.90
1301;DHT22;59099;48.806;9.160;2022-10-18T00:26:12;14.40;99.90
1301;DHT22;59099;48.806;9.160;2022-10-18T00:28:42;14.30;99.90
1301;DHT22;59099;48.806;9.160;2022-10-18T00:31:26;14.30;99.90
1301;DHT22;59099;48.806;9.160;2022-10-18T00:33:55;14.30;99.90
1301;DHT22;59099;48.806;9.160;2022-10-18T00:36:24;14.20;99.90
1301;DHT22;59099;48.806;9.160;2022-10-18T00:38:53;14.20;99.90
1301;DHT22;59099;48.806;9.160;2022-10-18T00:41:25;14.20;99.90
1301;DHT22;59099;48.806;9.160;2022-10-18T00:46:34;14.20;99.90
1301;DHT22;59099;48.806;9.160;2022-10-18T00:49:06;14.20;99.90
1301;DHT22;59099;48.806;9.160;2022-10-18T00:51:41;14.20;99.90
1301;DHT22;59099;48.806;9.160;2022-10-18T00:54:12;14.20;99.90
1301;DHT22;59099;48.806;9.160;2022-10-18T00:56:39;14.20;99.90
1301;DHT22;59099;48.806;9.160;2022-10-18T00:59:11;14.30;99.90
1301;DHT22;59099;48.806;9.160;2022-10-18T01:01:38;14.30;99.90
1301;DHT22;59099;48.806;9.160;2022-10-18T01:04:05;14.40;99.90
1301;DHT22;59099;48.806;9.160;2022-10-18T01:06:31;14.40;99.90
1301;DHT22;59099;48.806;9.160;2022-10-18T01:09:22;14.50;99.90
1301;DHT22;59099;48.806;9.160;2022-10-18T01:12:11;14.60;99.90
1301;DHT22;59099;48.806;9.160;2022-10-18T01:15:12;14.50;99.90
1301;DHT22;59099;48.806;9.160;2022-10-18T01:23:44;14.70;99.90
1301;DHT22;59099;48.806;9.160;2022-10-18T01:31:32;14.60;99.90
1301;DHT22;59099;48.806;9.160;2022-10-18T01:34:04;14.70;99.90
1301;DHT22;59099;48.806;9.160;2022-10-18T01:36:40;14.70;99.90
1301;DHT22;59099;48.806;9.160;2022-10-18T01:39:11;14.80;99.90
1301;DHT22;59099;48.806;9.160;2022-10-18T01:41:42;14.90;99.90
1301;DHT22;59099;48.806;9.160;2022-10-18T01:44:11;15.00;99.90
1301;DHT22;59099;48.806;9.160;2022-10-18T01:46:40;15.00;99.90
1301;DHT22;59099;48.806;9.160;2022-10-18T01:49:07;15.00;99.90
1301;DHT22;59099;48.806;9.160;2022-10-18T01:51:36;15.10;99.90
1301;DHT22;59099;48.806;9.160;2022-10-18T01:54:02;15.20;99.90
1301;DHT22;59099;48.806;9.160;2022-10-18T02:04:33;15.10;99.90
1301;DHT22;59099;48.806;9.160;2022-10-18T02:07:26;15.00;99.90
1301;DHT22;59099;48.806;9.160;2022-10-18T02:12:49;15.00;99.90
1301;DHT22;59099;48.806;9.160;2022-10-18T02:15:21;15.00;99.90
1301;DHT22;59099;48.806;9.160;2022-10-18T02:17:53;15.00;99.90
1301;DHT22;59099;48.806;9.160;2022-10-18T02:20:24;15.00;99.90
1301;DHT22;59099;48.806;9.160;2022-10-18T02:22:53;15.00;99.90
1301;DHT22;59099;48.806;9.160;2022-10-18T02:25:24;15.10;99.90
1301;DHT22;59099;48.806;9.160;2022-10-18T02:27:53;15.10;99.90
1301;DHT22;59099;48.806;9.160;2022-10-18T02:30:23;15.00;99.90
1301;DHT22;59099;48.806;9.160;2022-10-18T02:33:07;15.00;99.90
1301;DHT22;59099;48.806;9.160;2022-10-18T02:35:40;15.00;99.90
1301;DHT22;59099;48.806;9.160;2022-10-18T02:38:08;15.00;99.90
1301;DHT22;59099;48.806;9.160;2022-10-18T02:40:49;15.10;99.90
1301;DHT22;59099;48.806;9.160;2022-10-18T02:43:17;15.00;99.90
1301;DHT22;59099;48.806;9.160;2022-10-18T02:45:46;15.00;99.90
1301;DHT22;59099;48.806;9.160;2022-10-18T02:48:18;15.10;99.90
1301;DHT22;59099;48.806;9.160;2022-10-18T02:50:44;15.10;99.90
1301;DHT22;59099;48.806;9.160;2022-10-18T02:53:10;15.10;99.90
1301;DHT22;59099;48.806;9.160;2022-10-18T02:55:35;15.20;99.90
1301;DHT22;59099;48.806;9.160;2022-10-18T02:58:04;15.20;99.90
1301;DHT22;59099;48.806;9.160;2022-10-18T03:00:30;15.20;99.90
1301;DHT22;59099;48.806;9.160;2022-10-18T03:02:56;15.20;99.90
1301;DHT22;59099;48.806;9.160;2022-10-18T03:05:21;15.20;99.90
1301;DHT22;59099;48.806;9.160;2022-10-18T03:07:47;15.20;99.90
1301;DHT22;59099;48.806;9.160;2022-10-18T03:10:13;15.20;99.90
1301;DHT22;59099;48.806;9.160;2022-10-18T03:12:38;15.20;99.90
1301;DHT22;59099;48.806;9.160;2022-10-18T03:15:04;15.20;99.90
1301;DHT22;59099;48.806;9.160;2022-10-18T03:17:31;15.20;99.90
1301;DHT22;59099;48.806;9.160;2022-10-18T03:19:57;15.20;99.90
1301;DHT22;59099;48.806;9.160;2022-10-18T03:22:23;15.20;99.90
1301;DHT22;59099;48.806;9.160;2022-10-18T03:24:49;15.10;99.90
1301;DHT22;59099;48.806;9.160;2022-10-18T03:27:15;15.10;99.90
1301;DHT22;59099;48.806;9.160;2022-10-18T03:29:44;15.10;99.90
1301;DHT22;59099;48.806;9.160;2022-10-18T03:32:09;15.10;99.90
1301;DHT22;59099;48.806;9.160;2022-10-18T03:34:35;15.20;99.90
1301;DHT22;59099;48.806;9.160;2022-10-18T03:37:01;15.20;99.90
1301;DHT22;59099;48.806;9.160;2022-10-18T03:39:27;15.20;99.90
1301;DHT22;59099;48.806;9.160;2022-10-18T03:41:53;15.20;99.90
1301;DHT22;59099;48.806;9.160;2022-10-18T03:44:18;15.20;99.90
1301;DHT22;59099;48.806;9.160;2022-10-18T03:46:44;15.10;99.90
1301;DHT22;59099;48.806;9.160;2022-10-18T03:49:10;15.10;99.90
1301;DHT22;59099;48.806;9.160;2022-10-18T03:51:35;15.10;99.90
1301;DHT22;59099;48.806;9.160;2022-10-18T03:54:01;15.00;99.90
1301;DHT22;59099;48.806;9.160;2022-10-18T03:56:27;15.00;99.90
1301;DHT22;59099;48.806;9.160;2022-10-18T03:58:56;15.00;99.90
1301;DHT22;59099;48.806;9.160;2022-10-18T04:01:22;14.90;99.90
1301;DHT22;59099;48.806;9.160;2022-10-18T04:03:48;14.90;99.90
1301;DHT22;59099;48.806;9.160;2022-10-18T04:06:13;14.90;99.90
1301;DHT22;59099;48.806;9.160;2022-10-18T04:08:42;14.90;99.90
1301;DHT22;59099;48.806;9.160;2022-10-18T04:11:08;14.80;99.90
1301;DHT22;59099;48.806;9.160;2022-10-18T04:13:35;14.80;99.90
1301;DHT22;59099;48.806;9.160;2022-10-18T04:16:01;14.70;99.90
1301;DHT22;59099;48.806;9.160;2022-10-18T04:18:26;14.60;99.90
1301;DHT22;59099;48.806;9.160;2022-10-18T04:20:52;14.50;99.90
1301;DHT22;59099;48.806;9.160;2022-10-18T04:23:18;14.50;99.90
1301;DHT22;59099;48.806;9.160;2022-10-18T04:25:44;14.60;99.90
1301;DHT22;59099;48.806;9.160;2022-10-18T04:28:12;14.70;99.90
1301;DHT22;59099;48.806;9.160;2022-10-18T04:30:41;14.60;99.90
1301;DHT22;59099;48.806;9.160;2022-10-18T04:33:10;14.60;99.90
1301;DHT22;59099;48.806;9.160;2022-10-18T04:35:36;14.60;99.90
1301;DHT22;59099;48.806;9.160;2022-10-18T04:38:02;14.60;99.90
1301;DHT22;59099;48.806;9.160;2022-10-18T04:40:28;14.70;99.90
1301;DHT22;59099;48.806;9.160;2022-10-18T04:42:54;14.70;99.90
1301;DHT22;59099;48.806;9.160;2022-10-18T04:45:20;14.80;99.90
1301;DHT22;59099;48.806;9.160;2022-10-18T04:47:48;14.80;99.90
1301;DHT22;59099;48.806;9.160;2022-10-18T04:50:14;14.90;99.90
1301;DHT22;59099;48.806;9.160;2022-10-18T04:52:40;14.90;99.90
1301;DHT22;59099;48.806;9.160;2022-10-18T04:55:09;15.00;99.90
1301;DHT22;59099;48.806;9.160;2022-10-18T04:57:35;15.00;99.90
1301;DHT22;59099;48.806;9.160;2022-10-18T05:00:01;15.00;99.90
1301;DHT22;59099;48.806;9.160;2022-10-18T05:02:27;15.00;99.90
1301;DHT22;59099;48.806;9.160;2022-10-18T05:04:53;14.90;99.90
1301;DHT22;59099;48.806;9.160;2022-10-18T05:07:19;14.90;99.90
1301;DHT22;59099;48.806;9.160;2022-10-18T05:09:44;15.00;99.90
1301;DHT22;59099;48.806;9.160;2022-10-18T05:12:10;14.90;99.90
1301;DHT22;59099;48.806;9.160;2022-10-18T05:14:36;14.90;99.90
1301;DHT22;59099;48.806;9.160;2022-10-18T05:17:05;15.00;99.90
1301;DHT22;59099;48.806;9.160;2022-10-18T05:19:31;15.00;99.90
1301;DHT22;59099;48.806;9.160;2022-10-18T05:21:57;15.00;99.90
1301;DHT22;59099;48.806;9.160;2022-10-18T05:24:23;15.00;99.90
1301;DHT22;59099;48.806;9.160;2022-10-18T05:26:48;15.00;99.90
1301;DHT22;59099;48.806;9.160;2022-10-18T05:31:55;15.30;99.90
1301;DHT22;59099;48.806;9.160;2022-10-18T05:34:21;15.40;99.90
1301;DHT22;59099;48.806;9.160;2022-10-18T05:36:47;15.50;99.90
1301;DHT22;59099;48.806;9.160;2022-10-18T05:39:15;15.70;99.90
1301;DHT22;59099;48.806;9.160;2022-10-18T05:41:41;16.00;99.90
1301;DHT22;59099;48.806;9.160;2022-10-18T05:44:07;16.10;99.90
1301;DHT22;59099;48.806;9.160;2022-10-18T05:46:33;16.20;99.90
1301;DHT22;59099;48.806;9.160;2022-10-18T05:48:58;16.40;99.90
1301;DHT22;59099;48.806;9.160;2022-10-18T05:51:27;16.50;99.90
1301;DHT22;59099;48.806;9.160;2022-10-18T05:53:55;16.60;99.90
1301;DHT22;59099;48.806;9.160;2022-10-18T05:56:21;16.70;99.90
1301;DHT22;59099;48.806;9.160;2022-10-18T05:58:49;16.80;99.90
1301;DHT22;59099;48.806;9.160;2022-10-18T06:01:16;16.80;99.90
1301;DHT22;59099;48.806;9.160;2022-10-18T06:03:44;16.80;99.90
1301;DHT22;59099;48.806;9.160;2022-10-18T06:06:11;16.90;99.90
1301;DHT22;59099;48.806;9.160;2022-10-18T06:08:38;17.00;99.90
1301;DHT22;59099;48.806;9.160;2022-10-18T06:11:23;17.00;99.90
1301;DHT22;59099;48.806;9.160;2022-10-18T06:13:50;17.10;99.90
1301;DHT22;59099;48.806;9.160;2022-10-18T06:16:19;17.00;99.90
1301;DHT22;59099;48.806;9.160;2022-10-18T06:18:51;17.00;99.90
1301;DHT22;59099;48.806;9.160;2022-10-18T06:21:18;17.10;99.90
1301;DHT22;59099;48.806;9.160;2022-10-18T06:23:52;17.00;99.90
1301;DHT22;59099;48.806;9.160;2022-10-18T06:26:19;17.10;99.90
1301;DHT22;59099;48.806;9.160;2022-10-18T06:28:45;17.30;99.90
1301;DHT22;59099;48.806;9.160;2022-10-18T06:31:11;17.40;99.90
1301;DHT22;59099;48.806;9.160;2022-10-18T06:33:40;17.50;99.90
1301;DHT22;59099;48.806;9.160;2022-10-18T06:36:14;17.60;99.90
1301;DHT22;59099;48.806;9.160;2022-10-18T06:38:41;17.60;99.90
1301;DHT22;59099;48.806;9.160;2022-10-18T06:41:07;17.60;99.90
1301;DHT22;59099;48.806;9.160;2022-10-18T06:43:34;17.60;99.90
1301;DHT22;59099;48.806;9.160;2022-10-18T06:46:01;17.60;99.90
1301;DHT22;59099;48.806;9.160;2022-10-18T06:48:33;17.60;99.90
1301;DHT22;59099;48.806;9.160;2022-10-18T06:51:02;17.70;99.90
1301;DHT22;59099;48.806;9.160;2022-10-18T06:53:33;17.80;99.90
1301;DHT22;59099;48.806;9.160;2022-10-18T06:58:32;17.90;99.90
1301;DHT22;59099;48.806;9.160;2022-10-18T07:00:58;17.90;99.90
1301;DHT22;59099;48.806;9.160;2022-10-18T07:03:24;18.00;99.90
1301;DHT22;59099;48.806;9.160;2022-10-18T07:05:52;17.90;99.90
1301;DHT22;59099;48.806;9.160;2022-10-18T07:08:20;18.00;99.90
1301;DHT22;59099;48.806;9.160;2022-10-18T07:10:53;18.00;99.90
1301;DHT22;59099;48.806;9.160;2022-10-18T07:13:19;18.00;99.90
1301;DHT22;59099;48.806;9.160;2022-10-18T07:15:45;18.10;99.90
1301;DHT22;59099;48.806;9.160;2022-10-18T07:18:11;18.10;99.90
1301;DHT22;59099;48.806;9.160;2022-10-18T07:20:41;18.20;99.90
1301;DHT22;59099;48.806;9.160;2022-10-18T07:23:11;18.10;99.90
1301;DHT22;59099;48.806;9.160;2022-10-18T07:25:37;18.10;99.90
1301;DHT22;59099;48.806;9.160;2022-10-18T07:28:07;18.10;99.90
1301;DHT22;59099;48.806;9.160;2022-10-18T07:30:33;18.10;99.90
1301;DHT22;59099;48.806;9.160;2022-10-18T07:33:01;18.30;99.90
1301;DHT22;59099;48.806;9.160;2022-10-18T07:35:31;18.20;99.90
1301;DHT22;59099;48.806;9.160;2022-10-18T07:37:59;18.30;99.90
1301;DHT22;59099;48.806;9.160;2022-10-18T07:40:27;18.40;99.90
1301;DHT22;59099;48.806;9.160;2022-10-18T07:42:53;18.50;99.90
1301;DHT22;59099;48.806;9.160;2022-10-18T07:45:18;18.60;99.90
1301;DHT22;59099;48.806;9.160;2022-10-18T07:47:44;18.60;99.90
1301;DHT22;59099;48.806;9.160;2022-10-18T07:50:10;18.70;99.90
1301;DHT22;59099;48.806;9.160;2022-10-18T07:52:36;18.80;99.90
1301;DHT22;59099;48.806;9.160;2022-10-18T07:55:02;18.80;99.90
1301;DHT22;59099;48.806;9.160;2022-10-18T07:57:30;18.90;99.90
1301;DHT22;59099;48.806;9.160;2022-10-18T07:59:56;18.90;99.90
1301;DHT22;59099;48.806;9.160;2022-10-18T08:02:22;18.90;99.90
1301;DHT22;59099;48.806;9.160;2022-10-18T08:04:48;19.00;99.90
1301;DHT22;59099;48.806;9.160;2022-10-18T08:07:14;19.00;99.90
1301;DHT22;59099;48.806;9.160;2022-10-18T08:09:39;19.10;99.90
1301;DHT22;59099;48.806;9.160;2022-10-18T08:12:05;19.20;99.90
1301;DHT22;59099;48.806;9.160;2022-10-18T08:14:31;19.20;99.90
1301;DHT22;59099;48.806;9.160;2022-10-18T08:19:41;19.30;99.90
1301;DHT22;59099;48.806;9.160;2022-10-18T08:22:06;19.40;99.90
1301;DHT22;59099;48.806;9.160;2022-10-18T08:24:32;19.40;99.90
1301;DHT22;59099;48.806;9.160;2022-10-18T08:26:58;19.40;99.90
1301;DHT22;59099;48.806;9.160;2022-10-18T08:29:24;19.40;99.90
1301;DHT22;59099;48.806;9.160;2022-10-18T08:31:51;19.40;99.90
1301;DHT22;59099;48.806;9.160;2022-10-18T08:34:17;19.40;99.90
1301;DHT22;59099;48.806;9.160;2022-10-18T08:36:43;19.50;99.90
1301;DHT22;59099;48.806;9.160;2022-10-18T08:39:09;19.60;99.90
1301;DHT22;59099;48.806;9.160;2022-10-18T08:41:55;19.60;99.90
1301;DHT22;59099;48.806;9.160;2022-10-18T08:44:29;19.60;99.90
1301;DHT22;59099;48.806;9.160;2022-10-18T08:47:11;19.60;99.90
1301;DHT22;59099;48.806;9.160;2022-10-18T08:49:46;19.60;99.90
1301;DHT22;59099;48.806;9.160;2022-10-18T08:52:33;19.70;99.90
1301;DHT22;59099;48.806;9.160;2022-10-18T08:57:46;20.10;99.90
1301;DHT22;59099;48.806;9.160;2022-10-18T09:00:21;20.20;99.90
1301;DHT22;59099;48.806;9.160;2022-10-18T09:05:52;20.70;99.90
1301;DHT22;59099;48.806;9.160;2022-10-18T09:08:46;21.80;99.90
1301;DHT22;59099;48.806;9.160;2022-10-18T09:21:54;28.40;99.90
1301;DHT22;59099;48.806;9.160;2022-10-18T09:24:37;29.50;99.90
1301;DHT22;59099;48.806;9.160;2022-10-18T09:27:27;30.30;99.90
1301;DHT22;59099;48.806;9.160;2022-10-18T09:30:33;31.00;99.90
1301;DHT22;59099;48.806;9.160;2022-10-18T09:33:37;30.90;98.80
1301;DHT22;59099;48.806;9.160;2022-10-18T09:35:51;30.60;99.60
1301;DHT22;59099;48.806;9.160;2022-10-18T09:38:21;29.20;97.90
1301;DHT22;59099;48.806;9.160;2022-10-18T09:40:56;28.40;99.50
1301;DHT22;59099;48.806;9.160;2022-10-18T09:43:44;27.50;99.90
1301;DHT22;59099;48.806;9.160;2022-10-18T09:46:13;26.50;99.90
1301;DHT22;59099;48.806;9.160;2022-10-18T09:48:48;25.50;99.90
1301;DHT22;59099;48.806;9.160;2022-10-18T09:51:18;25.30;99.90
1301;DHT22;59099;48.806;9.160;2022-10-18T09:56:29;25.30;99.90
1301;DHT22;59099;48.806;9.160;2022-10-18T09:58:57;25.00;99.90
1301;DHT22;59099;48.806;9.160;2022-10-18T10:01:29;24.90;99.90
1301;DHT22;59099;48.806;9.160;2022-10-18T10:03:55;25.30;99.90
1301;DHT22;59099;48.806;9.160;2022-10-18T10:06:30;26.30;99.90
1301;DHT22;59099;48.806;9.160;2022-10-18T10:09:00;27.10;99.90
1301;DHT22;59099;48.806;9.160;2022-10-18T10:11:40;27.30;99.90
1301;DHT22;59099;48.806;9.160;2022-10-18T10:14:15;26.70;99.90
1301;DHT22;59099;48.806;9.160;2022-10-18T10:17:04;26.50;99.90
1301;DHT22;59099;48.806;9.160;2022-10-18T10:19:35;26.60;99.90
1301;DHT22;59099;48.806;9.160;2022-10-18T10:22:11;26.80;99.90
1301;DHT22;59099;48.806;9.160;2022-10-18T10:24:59;27.10;99.90
1301;DHT22;59099;48.806;9.160;2022-10-18T10:27:52;28.10;99.90
1301;DHT22;59099;48.806;9.160;2022-10-18T10:30:28;30.10;99.90
1301;DHT22;59099;48.806;9.160;2022-10-18T10:32:56;31.30;99.30
1301;DHT22;59099;48.806;9.160;2022-10-18T10:35:39;31.90;94.00
1301;DHT22;59099;48.806;9.160;2022-10-18T10:38:06;32.90;93.70
1301;DHT22;59099;48.806;9.160;2022-10-18T10:40:48;33.90;91.10
1301;DHT22;59099;48.806;9.160;2022-10-18T10:43:32;33.70;88.40
1301;DHT22;59099;48.806;9.160;2022-10-18T10:48:48;33.80;87.60
1301;DHT22;59099;48.806;9.160;2022-10-18T10:51:38;34.40;83.30
1301;DHT22;59099;48.806;9.160;2022-10-18T10:54:21;34.90;77.70
1301;DHT22;59099;48.806;9.160;2022-10-18T11:04:52;31.20;85.70
1301;DHT22;59099;48.806;9.160;2022-10-18T11:12:51;28.90;92.10
1301;DHT22;59099;48.806;9.160;2022-10-18T11:18:19;28.00;95.70
1301;DHT22;59099;48.806;9.160;2022-10-18T11:23:40;29.20;96.90
1301;DHT22;59099;48.806;9.160;2022-10-18T11:26:30;30.60;91.80
1301;DHT22;59099;48.806;9.160;2022-10-18T11:54:14;28.60;93.90
1301;DHT22;59099;48.806;9.160;2022-10-18T11:59:34;27.40;94.30
1301;DHT22;59099;48.806;9.160;2022-10-18T12:05:06;25.90;95.90
1301;DHT22;59099;48.806;9.160;2022-10-18T12:10:52;27.30;97.90
1301;DHT22;59099;48.806;9.160;2022-10-18T12:13:52;28.00;96.50
1301;DHT22;59099;48.806;9.160;2022-10-18T12:16:32;28.00;95.90
1301;DHT22;59099;48.806;9.160;2022-10-18T12:19:03;26.80;96.20
1301;DHT22;59099;48.806;9.160;2022-10-18T12:21:33;26.50;99.90
1301;DHT22;59099;48.806;9.160;2022-10-18T12:24:09;26.10;97.20
1301;DHT22;59099;48.806;9.160;2022-10-18T12:26:36;25.80;98.80
1301;DHT22;59099;48.806;9.160;2022-10-18T12:29:19;26.00;99.40
1301;DHT22;59099;48.806;9.160;2022-10-18T12:31:55;26.80;99.90
1301;DHT22;59099;48.806;9.160;2022-10-18T12:37:13;29.30;94.30
1301;DHT22;59099;48.806;9.160;2022-10-18T12:44:45;30.00;94.00
1301;DHT22;59099;48.806;9.160;2022-10-18T12:47:25;30.70;93.70
1301;DHT22;59099;48.806;9.160;2022-10-18T12:49:57;30.90;92.00
1301;DHT22;59099;48.806;9.160;2022-10-18T12:52:25;31.50;91.70
1301;DHT22;59099;48.806;9.160;2022-10-18T12:55:01;31.70;89.50
1301;DHT22;59099;48.806;9.160;2022-10-18T13:16:45;31.40;86.10
1301;DHT22;59099;48.806;9.160;2022-10-18T13:19:47;29.90;88.90
1301;DHT22;59099;48.806;9.160;2022-10-18T13:30:14;30.70;84.80
1301;DHT22;59099;48.806;9.160;2022-10-18T13:41:03;30.20;87.40
1301;DHT22;59099;48.806;9.160;2022-10-18T13:57:38;31.70;89.10
1301;DHT22;59099;48.806;9.160;2022-10-18T14:00:14;32.20;85.60
1301;DHT22;59099;48.806;9.160;2022-10-18T14:08:18;31.50;82.60
1301;DHT22;59099;48.806;9.160;2022-10-18T14:13:23;30.80;89.20
1301;DHT22;59099;48.806;9.160;2022-10-18T14:15:53;30.80;88.60
1301;DHT22;59099;48.806;9.160;2022-10-18T14:18:34;30.60;87.40
1301;DHT22;59099;48.806;9.160;2022-10-18T14:21:18;29.20;90.00
1301;DHT22;59099;48.806;9.160;2022-10-18T14:23:58;28.60;91.50
1301;DHT22;59099;48.806;9.160;2022-10-18T14:26:24;28.10;92.30
1301;DHT22;59099;48.806;9.160;2022-10-18T14:29:14;27.50;93.30
1301;DHT22;59099;48.806;9.160;2022-10-18T14:31:59;26.80;94.10
1301;DHT22;59099;48.806;9.160;2022-10-18T14:34:34;26.20;95.10
1301;DHT22;59099;48.806;9.160;2022-10-18T14:37:00;25.70;96.90
1301;DHT22;59099;48.806;9.160;2022-10-18T14:39:26;25.40;98.30
1301;DHT22;59099;48.806;9.160;2022-10-18T14:41:58;25.00;99.20
1301;DHT22;59099;48.806;9.160;2022-10-18T14:44:28;24.40;99.90
1301;DHT22;59099;48.806;9.160;2022-10-18T14:47:28;24.10;99.90
1301;DHT22;59099;48.806;9.160;2022-10-18T14:50:20;23.90;99.90
1301;DHT22;59099;48.806;9.160;2022-10-18T14:52:47;23.80;99.90
1301;DHT22;59099;48.806;9.160;2022-10-18T14:55:22;23.40;99.90
1301;DHT22;59099;48.806;9.160;2022-10-18T14:57:49;23.20;99.90
1301;DHT22;59099;48.806;9.160;2022-10-18T15:00:34;23.50;99.90
1301;DHT22;59099;48.806;9.160;2022-10-18T15:03:03;23.50;99.90
1301;DHT22;59099;48.806;9.160;2022-10-18T15:05:55;24.10;99.90
1301;DHT22;59099;48.806;9.160;2022-10-18T15:08:20;24.50;99.90
1301;DHT22;59099;48.806;9.160;2022-10-18T15:10:47;24.60;99.90
1301;DHT22;59099;48.806;9.160;2022-10-18T15:13:19;24.70;99.90
1301;DHT22;59099;48.806;9.160;2022-10-18T15:15:45;24.60;99.90
1301;DHT22;59099;48.806;9.160;2022-10-18T15:18:20;24.40;99.90
1301;DHT22;59099;48.806;9.160;2022-10-18T15:21:19;23.90;99.90
1301;DHT22;59099;48.806;9.160;2022-10-18T15:23:45;23.80;99.90
1301;DHT22;59099;48.806;9.160;2022-10-18T15:26:14;23.60;99.90
1301;DHT22;59099;48.806;9.160;2022-10-18T15:28:44;23.50;99.90
1301;DHT22;59099;48.806;9.160;2022-10-18T15:31:32;23.20;99.90
1301;DHT22;59099;48.806;9.160;2022-10-18T15:34:10;22.70;99.90
1301;DHT22;59099;48.806;9.160;2022-10-18T15:36:38;22.60;99.90
1301;DHT22;59099;48.806;9.160;2022-10-18T15:39:24;22.60;99.90
1301;DHT22;59099;48.806;9.160;2022-10-18T15:41:56;22.90;99.90
1301;DHT22;59099;48.806;9.160;2022-10-18T15:44:31;22.80;99.90
1301;DHT22;59099;48.806;9.160;2022-10-18T15:47:18;22.70;99.90
1301;DHT22;59099;48.806;9.160;2022-10-18T15:49:53;22.50;99.90
1301;DHT22;59099;48.806;9.160;2022-10-18T15:57:47;21.90;99.90
1301;DHT22;59099;48.806;9.160;2022-10-18T16:00:17;21.80;99.90
1301;DHT22;59099;48.806;9.160;2022-10-18T16:02:46;21.80;99.90
1301;DHT22;59099;48.806;9.160;2022-10-18T16:05:14;21.80;99.90
1301;DHT22;59099;48.806;9.160;2022-10-18T16:07:50;21.90;99.90
1301;DHT22;59099;48.806;9.160;2022-10-18T16:10:16;21.70;99.90
1301;DHT22;59099;48.806;9.160;2022-10-18T16:12:42;21.70;99.90
1301;DHT22;59099;48.806;9.160;2022-10-18T16:15:11;21.60;99.90
1301;DHT22;59099;48.806;9.160;2022-10-18T16:17:39;21.60;99.90
1301;DHT22;59099;48.806;9.160;2022-10-18T16:20:08;21.60;99.90
1301;DHT22;59099;48.806;9.160;2022-10-18T16:22:40;21.40;99.90
1301;DHT22;59099;48.806;9.160;2022-10-18T16:25:06;21.30;99.90
1301;DHT22;59099;48.806;9.160;2022-10-18T16:27:32;21.20;99.90
1301;DHT22;59099;48.806;9.160;2022-10-18T16:29:58;21.00;99.90
1301;DHT22;59099;48.806;9.160;2022-10-18T16:32:26;20.90;99.90
1301;DHT22;59099;48.806;9.160;2022-10-18T16:34:57;20.80;99.90
1301;DHT22;59099;48.806;9.160;2022-10-18T16:37:23;20.80;99.90
1301;DHT22;59099;48.806;9.160;2022-10-18T16:39:56;20.70;99.90
1301;DHT22;59099;48.806;9.160;2022-10-18T16:42:21;20.80;99.90
1301;DHT22;59099;48.806;9.160;2022-10-18T16:44:48;20.70;99.90
1301;DHT22;59099;48.806;9.160;2022-10-18T16:47:14;20.70;99.90
1301;DHT22;59099;48.806;9.160;2022-10-18T16:49:40;20.60;99.90
1301;DHT22;59099;48.806;9.160;2022-10-18T16:52:06;20.50;99.90
1301;DHT22;59099;48.806;9.160;2022-10-18T16:54:32;20.40;99.90
1301;DHT22;59099;48.806;9.160;2022-10-18T16:56:59;20.30;99.90
1301;DHT22;59099;48.806;9.160;2022-10-18T16:59:27;20.20;99.90
1301;DHT22;59099;48.806;9.160;2022-10-18T17:01:54;20.20;99.90
1301;DHT22;59099;48.806;9.160;2022-10-18T17:04:20;20.20;99.90
1301;DHT22;59099;48.806;9.160;2022-10-18T17:06:46;20.10;99.90
1301;DHT22;59099;48.806;9.160;2022-10-18T17:09:13;20.00;99.90
1301;DHT22;59099;48.806;9.160;2022-10-18T17:11:39;19.90;99.90
1301;DHT22;59099;48.806;9.160;2022-10-18T17:14:05;19.90;99.90
1301;DHT22;59099;48.806;9.160;2022-10-18T17:16:33;19.90;99.90
1301;DHT22;59099;48.806;9.160;2022-10-18T17:19:01;19.90;99.90
1301;DHT22;59099;48.806;9.160;2022-10-18T17:21:28;19.80;99.90
1301;DHT22;59099;48.806;9.160;2022-10-18T17:23:54;19.80;99.90
1301;DHT22;59099;48.806;9.160;2022-10-18T17:26:21;19.80;99.90
1301;DHT22;59099;48.806;9.160;2022-10-18T17:28:51;19.80;99.90
1301;DHT22;59099;48.806;9.160;2022-10-18T17:31:17;19.70;99.90
1301;DHT22;59099;48.806;9.160;2022-10-18T17:33:43;19.70;99.90
1301;DHT22;59099;48.806;9.160;2022-10-18T17:36:10;19.70;99.90
1301;DHT22;59099;48.806;9.160;2022-10-18T17:38:36;19.60;99.90
1301;DHT22;59099;48.806;9.160;2022-10-18T17:41:09;19.60;99.90
1301;DHT22;59099;48.806;9.160;2022-10-18T17:43:37;19.50;99.90
1301;DHT22;59099;48.806;9.160;2022-10-18T17:46:03;19.50;99.90
1301;DHT22;59099;48.806;9.160;2022-10-18T17:48:29;19.50;99.90
1301;DHT22;59099;48.806;9.160;2022-10-18T17:50:54;19.50;99.90
1301;DHT22;59099;48.806;9.160;2022-10-18T17:53:20;19.40;99.90
1301;DHT22;59099;48.806;9.160;2022-10-18T17:55:49;19.40;99.90
1301;DHT22;59099;48.806;9.160;2022-10-18T17:58:15;19.30;99.90
1301;DHT22;59099;48.806;9.160;2022-10-18T18:00:41;19.30;99.90
1301;DHT22;59099;48.806;9.160;2022-10-18T18:03:06;19.30;99.90
1301;DHT22;59099;48.806;9.160;2022-10-18T18:05:33;19.20;99.90
1301;DHT22;59099;48.806;9.160;2022-10-18T18:07:59;19.20;99.90
1301;DHT22;59099;48.806;9.160;2022-10-18T18:10:26;19.00;99.90
1301;DHT22;59099;48.806;9.160;2022-10-18T18:12:54;19.00;99.90
1301;DHT22;59099;48.806;9.160;2022-10-18T18:15:20;18.80;99.90
1301;DHT22;59099;48.806;9.160;2022-10-18T18:17:45;18.60;99.90
1301;DHT22;59099;48.806;9.160;2022-10-18T18:20:11;18.50;99.90
1301;DHT22;59099;48.806;9.160;2022-10-18T18:22:37;18.20;99.90
1301;DHT22;59099;48.806;9.160;2022-10-18T18:25:04;18.00;99.90
1301;DHT22;59099;48.806;9.160;2022-10-18T18:27:30;18.00;99.90
1301;DHT22;59099;48.806;9.160;2022-10-18T18:29:56;17.90;99.90
1301;DHT22;59099;48.806;9.160;2022-10-18T18:32:21;17.80;99.90
1301;DHT22;59099;48.806;9.160;2022-10-18T18:34:47;17.80;99.90
1301;DHT22;59099;48.806;9.160;2022-10-18T18:37:13;17.70;99.90
1301;DHT22;59099;48.806;9.160;2022-10-18T18:39:39;17.60;99.90
1301;DHT22;59099;48.806;9.160;2022-10-18T18:42:05;17.50;99.90
1301;DHT22;59099;48.806;9.160;2022-10-18T18:44:32;17.50;99.90
1301;DHT22;59099;48.806;9.160;2022-10-18T18:46:59;17.30;99.90
1301;DHT22;59099;48.806;9.160;2022-10-18T18:49:24;17.20;99.90
1301;DHT22;59099;48.806;9.160;2022-10-18T18:51:52;17.00;99.90
1301;DHT22;59099;48.806;9.160;2022-10-18T18:54:18;17.00;99.90
1301;DHT22;59099;48.806;9.160;2022-10-18T18:56:44;16.90;99.90
1301;DHT22;59099;48.806;9.160;2022-10-18T18:59:14;16.90;99.90
1301;DHT22;59099;48.806;9.160;2022-10-18T19:01:40;16.80;99.90
1301;DHT22;59099;48.806;9.160;2022-10-18T19:04:07;16.80;99.90